createdAt,value
2018-08-20T00:02:37.012Z,101116.52
2018-08-20T00:07:29.599Z,101109.31
2018-08-20T00:12:22.268Z,101110.23
2018-08-20T00:17:14.946Z,101102.84
2018-08-20T00:22:07.448Z,101108.47
2018-08-20T00:27:01.627Z,101108.99
2018-08-20T00:31:54.089Z,101109.81
2018-08-20T00:36:47.768Z,101105.43
2018-08-20T00:41:40.238Z,101106.16
2018-08-20T00:46:32.791Z,101105.98
2018-08-20T00:51:25.292Z,101111.52
2018-08-20T00:56:17.799Z,101111.04
2018-08-20T01:01:10.308Z,101109.73
2018-08-20T01:06:02.972Z,101110.64
2018-08-20T01:10:55.548Z,101114.23
2018-08-20T01:15:48.068Z,101116.73
2018-08-20T01:20:40.601Z,101116.43
2018-08-20T01:25:33.084Z,101125.78
2018-08-20T01:30:25.585Z,101123.00
2018-08-20T01:35:24.886Z,101127.93
2018-08-20T01:40:17.348Z,101127.97
2018-08-20T01:45:09.939Z,101127.27
2018-08-20T01:50:02.467Z,101127.56
2018-08-20T01:54:55.003Z,101122.67
2018-08-20T01:59:47.536Z,101136.14
2018-08-20T02:04:40.049Z,101139.14
2018-08-20T02:09:32.557Z,101133.95
2018-08-20T02:14:25.016Z,101125.86
2018-08-20T02:19:17.511Z,101119.14
2018-08-20T02:24:10.121Z,101119.47
2018-08-20T02:29:02.596Z,101115.20
2018-08-20T02:33:55.084Z,101111.97
2018-08-20T02:38:47.736Z,101115.67
2018-08-20T02:43:40.259Z,101110.25
2018-08-20T02:48:32.743Z,101106.80
2018-08-20T02:53:25.297Z,101098.63
2018-08-20T02:58:17.775Z,101092.69
2018-08-20T03:03:10.268Z,101098.80
2018-08-20T03:08:02.752Z,101097.52
2018-08-20T03:12:55.193Z,101095.33
2018-08-20T03:17:47.699Z,101087.72
2018-08-20T03:22:40.225Z,101094.67
2018-08-20T03:27:32.677Z,101089.25
2018-08-20T03:32:25.158Z,101089.38
2018-08-20T03:37:18.097Z,101087.24
2018-08-20T03:42:10.651Z,101088.70
2018-08-20T03:47:03.169Z,101089.81
2018-08-20T03:51:55.687Z,101089.81
2018-08-20T03:56:48.240Z,101093.59
2018-08-20T04:01:40.738Z,101097.78
2018-08-20T04:06:33.274Z,101091.01
2018-08-20T04:11:25.768Z,101097.04
2018-08-20T04:16:18.262Z,101093.96
2018-08-20T04:21:10.810Z,101102.61
2018-08-20T04:26:03.374Z,101102.16
2018-08-20T04:30:55.972Z,101104.90
2018-08-20T04:35:48.528Z,101108.40
2018-08-20T04:40:41.054Z,101106.47
2018-08-20T04:45:33.622Z,101108.19
2018-08-20T04:50:26.353Z,101103.28
2018-08-20T04:55:18.727Z,101106.08
2018-08-20T05:00:11.616Z,101100.09
2018-08-20T05:05:04.189Z,101104.19
2018-08-20T05:09:56.842Z,101105.81
2018-08-20T05:14:49.368Z,101106.89
2018-08-20T05:19:41.883Z,101112.02
2018-08-20T05:24:34.416Z,101115.48
2018-08-20T05:29:27.050Z,101113.38
2018-08-20T05:34:19.465Z,101129.23
2018-08-20T05:39:11.950Z,101133.60
2018-08-20T05:44:04.492Z,101142.42
2018-08-20T05:48:57.060Z,101136.20
2018-08-20T05:53:49.526Z,101142.88
2018-08-20T05:58:42.039Z,101156.71
2018-08-20T06:03:34.638Z,101145.17
2018-08-20T06:08:27.152Z,101149.89
2018-08-20T06:13:19.695Z,101165.81
2018-08-20T06:18:12.204Z,101167.94
2018-08-20T06:23:05.342Z,101176.00
2018-08-20T06:27:57.898Z,101176.22
2018-08-20T06:32:50.371Z,101175.48
2018-08-20T06:37:42.899Z,101177.88
2018-08-20T06:42:35.556Z,101181.03
2018-08-20T06:47:28.039Z,101175.00
2018-08-20T06:52:20.529Z,101170.91
2018-08-20T06:57:13.044Z,101171.23
2018-08-20T07:02:05.606Z,101166.81
2018-08-20T07:06:58.185Z,101169.86
2018-08-20T07:11:50.720Z,101168.13
2018-08-20T07:16:43.140Z,101173.31
2018-08-20T07:21:35.627Z,101177.84
2018-08-20T07:26:28.358Z,101181.83
2018-08-20T07:31:33.869Z,101185.01
2018-08-20T07:36:26.557Z,101191.17
2018-08-20T07:41:19.166Z,101194.44
2018-08-20T07:46:11.836Z,101199.55
2018-08-20T07:51:04.280Z,101207.42
2018-08-20T07:55:56.868Z,101210.73
2018-08-20T08:00:49.413Z,101220.91
2018-08-20T08:05:41.936Z,101211.80
2018-08-20T08:10:34.643Z,101217.48
2018-08-20T08:15:27.357Z,101218.99
2018-08-20T08:20:19.985Z,101224.95
2018-08-20T08:25:12.537Z,101226.66
2018-08-20T08:30:11.237Z,101228.55
2018-08-20T08:35:04.541Z,101228.52
2018-08-20T08:39:57.063Z,101231.78
2018-08-20T08:44:49.714Z,101227.33
2018-08-20T08:49:42.545Z,101229.99
2018-08-20T08:54:35.158Z,101227.50
2018-08-20T08:59:27.811Z,101230.55
2018-08-20T09:04:20.292Z,101237.72
2018-08-20T09:09:13.075Z,101230.55
2018-08-20T09:14:05.596Z,101224.23
2018-08-20T09:18:58.146Z,101223.44
2018-08-20T09:23:50.646Z,101223.13
2018-08-20T09:28:43.221Z,101215.95
2018-08-20T09:33:35.826Z,101232.85
2018-08-20T09:38:28.339Z,101229.64
2018-08-20T09:43:20.926Z,101228.12
2018-08-20T09:48:13.470Z,101236.84
2018-08-20T09:53:05.960Z,101234.70
2018-08-20T09:57:58.415Z,101235.34
2018-08-20T10:02:51.406Z,101236.42
2018-08-20T10:07:44.469Z,101239.69
2018-08-20T10:12:36.964Z,101232.98
2018-08-20T10:17:29.517Z,101238.35
2018-08-20T10:22:21.986Z,101236.93
2018-08-20T10:27:14.591Z,101240.15
2018-08-20T10:32:07.095Z,101226.27
2018-08-20T10:36:59.612Z,101237.34
2018-08-20T10:41:52.104Z,101218.16
2018-08-20T10:46:44.646Z,101223.48
2018-08-20T10:51:37.142Z,101235.10
2018-08-20T10:56:30.412Z,101236.78
2018-08-20T11:01:23.009Z,101230.09
2018-08-20T11:06:16.408Z,101231.02
2018-08-20T11:11:08.943Z,101240.67
2018-08-20T11:16:01.435Z,101241.88
2018-08-20T11:20:53.936Z,101244.48
2018-08-20T11:25:46.469Z,101246.11
2018-08-20T11:30:38.953Z,101247.70
2018-08-20T11:35:31.467Z,101250.45
2018-08-20T11:40:24.034Z,101239.80
2018-08-20T11:45:16.709Z,101252.88
2018-08-20T11:50:09.803Z,101255.12
2018-08-20T11:55:02.256Z,101256.50
2018-08-20T11:59:54.717Z,101258.69
2018-08-20T12:04:47.386Z,101250.04
2018-08-20T12:09:39.815Z,101252.12
2018-08-20T12:14:32.324Z,101257.02
2018-08-20T12:19:24.993Z,101244.53
2018-08-20T12:24:17.588Z,101244.68
2018-08-20T12:29:10.071Z,101245.92
2018-08-20T12:34:02.491Z,101246.48
2018-08-20T12:38:54.925Z,101254.31
2018-08-20T12:43:47.514Z,101263.95
2018-08-20T12:48:40.085Z,101270.69
2018-08-20T12:53:32.581Z,101258.57
2018-08-20T12:58:25.076Z,101259.95
2018-08-20T13:03:17.680Z,101267.02
2018-08-20T13:08:10.208Z,101264.37
2018-08-20T13:13:02.683Z,101258.52
2018-08-20T13:17:55.175Z,101263.16
2018-08-20T13:22:47.701Z,101258.94
2018-08-20T13:27:40.367Z,101248.17
2018-08-20T13:32:32.917Z,101249.30
2018-08-20T13:37:25.582Z,101255.36
2018-08-20T13:42:18.065Z,101249.30
2018-08-20T13:47:10.683Z,101252.36
2018-08-20T13:52:03.390Z,101256.33
2018-08-20T13:56:55.883Z,101253.31
2018-08-20T14:01:48.336Z,101243.78
2018-08-20T14:06:40.778Z,101242.66
2018-08-20T14:11:33.369Z,101241.80
2018-08-20T14:16:25.952Z,101248.23
2018-08-20T14:21:18.435Z,101253.13
2018-08-20T14:26:11.003Z,101249.55
2018-08-20T14:31:03.535Z,101239.55
2018-08-20T14:35:56.036Z,101236.39
2018-08-20T14:40:48.483Z,101240.66
2018-08-20T14:45:46.928Z,101243.92
2018-08-20T14:50:39.384Z,101240.72
2018-08-20T14:55:31.830Z,101241.84
2018-08-20T15:00:24.390Z,101245.92
2018-08-20T15:05:16.917Z,101258.42
2018-08-20T15:10:09.612Z,101263.58
2018-08-20T15:15:02.423Z,101257.70
2018-08-20T15:19:54.823Z,101252.50
2018-08-20T15:24:47.322Z,101267.70
2018-08-20T15:29:39.845Z,101265.88
2018-08-20T15:34:32.281Z,101275.47
2018-08-20T15:39:24.778Z,101271.98
2018-08-20T15:44:17.798Z,101269.45
2018-08-20T15:49:10.300Z,101267.34
2018-08-20T15:54:02.891Z,101257.70
2018-08-20T15:58:55.529Z,101260.20
2018-08-20T16:03:48.040Z,101253.63
2018-08-20T16:08:40.631Z,101258.31
2018-08-20T16:13:33.296Z,101253.87
2018-08-20T16:18:25.916Z,101250.49
2018-08-20T16:23:18.642Z,101251.31
2018-08-20T16:28:11.138Z,101256.12
2018-08-20T16:33:03.785Z,101251.12
2018-08-20T16:37:56.336Z,101245.59
2018-08-20T16:42:48.937Z,101241.55
2018-08-20T16:47:41.521Z,101242.59
2018-08-20T16:52:34.068Z,101243.05
2018-08-20T16:57:26.631Z,101241.22
2018-08-20T17:02:24.589Z,101242.80
2018-08-20T17:07:17.081Z,101241.78
2018-08-20T17:12:09.545Z,101230.70
2018-08-20T17:17:02.091Z,101226.95
2018-08-20T17:21:54.624Z,101233.20
2018-08-20T17:26:47.360Z,101237.33
2018-08-20T17:31:39.907Z,101237.73
2018-08-20T17:36:32.381Z,101240.41
2018-08-20T17:41:24.868Z,101244.67
2018-08-20T17:46:17.761Z,101247.00
2018-08-20T17:51:12.963Z,101244.63
2018-08-20T17:56:05.485Z,101253.08
2018-08-20T18:00:58.122Z,101264.57
2018-08-20T18:05:55.623Z,101260.53
2018-08-20T18:10:48.470Z,101274.57
2018-08-20T18:15:41.013Z,101273.27
2018-08-20T18:20:38.279Z,101273.09
2018-08-20T18:25:35.515Z,101278.36
2018-08-20T18:30:28.095Z,101280.14
2018-08-20T18:35:26.046Z,101283.74
2018-08-20T18:40:18.537Z,101284.92
2018-08-20T18:45:11.090Z,101287.41
2018-08-20T18:50:03.669Z,101291.53
2018-08-20T18:54:57.295Z,101294.84
2018-08-20T18:59:50.207Z,101303.57
2018-08-20T19:04:47.567Z,101301.70
2018-08-20T19:09:40.748Z,101306.42
2018-08-20T19:14:33.298Z,101316.63
2018-08-20T19:19:28.002Z,101324.97
2018-08-20T19:24:20.594Z,101330.80
2018-08-20T19:29:26.864Z,101329.48
2018-08-20T19:34:19.375Z,101331.91
2018-08-20T19:39:11.797Z,101325.86
2018-08-20T19:44:04.329Z,101327.03
2018-08-20T19:49:03.200Z,101329.22
2018-08-20T19:53:55.676Z,101327.48
2018-08-20T19:58:48.216Z,101326.61
2018-08-20T20:03:42.764Z,101323.02
2018-08-20T20:08:35.330Z,101323.50
2018-08-20T20:13:27.866Z,101328.70
2018-08-20T20:18:20.562Z,101328.44
2018-08-20T20:23:13.163Z,101336.13
2018-08-20T20:28:06.380Z,101332.00
2018-08-20T20:32:58.832Z,101338.13
2018-08-20T20:37:51.379Z,101333.77
2018-08-20T20:42:43.860Z,101337.37
2018-08-20T20:47:36.436Z,101336.55
2018-08-20T20:52:28.931Z,101343.22
2018-08-20T20:57:21.489Z,101349.01
2018-08-20T21:02:13.977Z,101352.60
2018-08-20T21:07:06.551Z,101361.11
2018-08-20T21:11:59.242Z,101356.48
2018-08-20T21:16:51.666Z,101372.18
2018-08-20T21:21:44.124Z,101376.07
2018-08-20T21:26:36.611Z,101395.35
2018-08-20T21:31:36.122Z,101402.53
2018-08-20T21:36:28.691Z,101402.06
2018-08-20T21:41:22.914Z,101405.69
2018-08-20T21:46:15.816Z,101418.67
2018-08-20T21:51:14.716Z,101425.03
2018-08-20T21:56:09.007Z,101429.73
2018-08-20T22:01:01.560Z,101429.78
2018-08-20T22:05:54.089Z,101429.25
2018-08-20T22:10:46.745Z,101434.50
2018-08-20T22:15:39.282Z,101439.25
2018-08-20T22:20:31.812Z,101443.67
2018-08-20T22:25:24.315Z,101448.59
2018-08-20T22:30:17.056Z,101447.56
2018-08-20T22:35:14.287Z,101454.45
2018-08-20T22:40:06.776Z,101447.61
2018-08-20T22:44:59.319Z,101442.95
2018-08-20T22:49:51.819Z,101454.00
2018-08-20T22:54:44.358Z,101450.19
2018-08-20T22:59:36.836Z,101450.53
2018-08-20T23:04:29.603Z,101452.47
2018-08-20T23:09:31.352Z,101458.81
2018-08-20T23:14:23.799Z,101455.58
2018-08-20T23:19:16.347Z,101458.61
2018-08-20T23:24:09.414Z,101453.70
2018-08-20T23:29:01.897Z,101461.99
2018-08-20T23:33:54.541Z,101470.25
2018-08-20T23:38:47.028Z,101469.76
2018-08-20T23:43:42.580Z,101478.28
2018-08-20T23:48:35.094Z,101473.91
2018-08-20T23:53:28.121Z,101473.14
2018-08-20T23:58:20.909Z,101481.94
